Time;durP1;ratioP1;P1;durP2;ratioP2;P2;SDS_P1;SDS_P2;PMS_P1;PMS_P2;Temp;Humidity;BMP_temperature;BMP_pressure;BME280_temperature;BME280_humidity;BME280_pressure;Samples;Min_cycle;Max_cycle;Signal;HPM_P1;HPM_P2
2021/12/03 00:01:33;;;;;;;25.60;8.75;;;;;;;9.62;100.00;100010.09;1608061;89;21628;-66
2021/12/03 00:04:00;;;;;;;18.52;8.53;;;;;;;9.65;100.00;100017.27;1621863;87;21114;-66
2021/12/03 00:06:28;;;;;;;22.27;9.05;;;;;;;9.66;100.00;100019.78;1626914;87;21651;-66
2021/12/03 00:08:55;;;;;;;22.85;9.20;;;;;;;9.70;100.00;100021.30;1632390;87;21175;-65
2021/12/03 00:11:22;;;;;;;21.48;8.65;;;;;;;9.73;100.00;100013.45;1625844;87;21087;-65
2021/12/03 00:13:51;;;;;;;26.23;8.88;;;;;;;9.67;100.00;100017.61;1626344;87;21612;-65
2021/12/03 00:16:18;;;;;;;23.70;8.55;;;;;;;9.69;100.00;100019.65;1625595;87;21051;-66
2021/12/03 00:18:45;;;;;;;22.05;8.35;;;;;;;9.67;100.00;100014.18;1622323;87;21650;-65
2021/12/03 00:21:15;;;;;;;21.12;8.95;;;;;;;9.65;100.00;100020.70;1621656;87;21083;-66
2021/12/03 00:23:43;;;;;;;21.15;7.58;;;;;;;9.67;100.00;100010.33;1626896;87;21658;-66
2021/12/03 00:26:11;;;;;;;21.10;8.65;;;;;;;9.70;100.00;100009.73;1614230;88;21185;-65
2021/12/03 00:28:40;;;;;;;25.40;8.45;;;;;;;9.72;100.00;100001.95;1608123;88;21121;-65
2021/12/03 00:31:08;;;;;;;20.60;8.80;;;;;;;9.70;100.00;100009.73;1629798;87;21074;-65
2021/12/03 00:33:36;;;;;;;21.70;8.78;;;;;;;9.66;100.00;100001.79;1624628;87;21044;-66
2021/12/03 00:36:06;;;;;;;26.42;9.53;;;;;;;9.67;100.00;100003.90;1622677;87;21087;-66
2021/12/03 00:38:39;;;;;;;24.32;9.13;;;;;;;9.65;100.00;100003.14;1612784;88;21142;-65
2021/12/03 00:41:08;;;;;;;18.92;9.53;;;;;;;9.62;100.00;99999.81;1623358;87;21074;-66
2021/12/03 00:43:40;;;;;;;25.25;9.80;;;;;;;9.60;100.00;100002.09;1626244;87;21058;-66
2021/12/03 00:46:06;;;;;;;19.32;8.70;;;;;;;9.61;100.00;100007.59;1626081;86;21079;-66
2021/12/03 00:48:33;;;;;;;19.15;9.15;;;;;;;9.58;100.00;100012.89;1618748;87;21122;-65
2021/12/03 00:51:01;;;;;;;24.10;9.03;;;;;;;9.60;100.00;100012.37;1618634;87;21157;-65
2021/12/03 00:53:27;;;;;;;30.50;9.88;;;;;;;9.60;100.00;100017.50;1618754;87;21102;-66
2021/12/03 00:55:54;;;;;;;22.80;9.45;;;;;;;9.59;100.00;100015.83;1637697;86;21079;-65
2021/12/03 00:58:21;;;;;;;20.20;9.58;;;;;;;9.59;100.00;100005.12;1640002;87;21096;-65
2021/12/03 01:00:47;;;;;;;23.57;9.03;;;;;;;9.59;100.00;100004.27;1632185;87;21092;-66
2021/12/03 01:03:15;;;;;;;20.92;9.90;;;;;;;9.63;100.00;99998.10;1627581;87;21031;-66
2021/12/03 01:05:41;;;;;;;23.62;10.08;;;;;;;9.58;100.00;100003.90;1623037;87;21102;-65
2021/12/03 01:08:09;;;;;;;21.52;8.98;;;;;;;9.59;100.00;100002.98;1618567;88;21071;-66
2021/12/03 01:10:36;;;;;;;21.30;9.38;;;;;;;9.56;100.00;99998.00;1599848;89;21061;-65
2021/12/03 01:13:03;;;;;;;19.17;9.50;;;;;;;9.57;100.00;100003.50;1624507;86;21087;-66
2021/12/03 01:15:34;;;;;;;22.45;9.78;;;;;;;9.58;100.00;99997.48;1626451;87;21017;-66
2021/12/03 01:18:03;;;;;;;24.82;9.48;;;;;;;9.59;100.00;99999.98;1603367;87;21618;-66
2021/12/03 01:20:32;;;;;;;19.05;9.38;;;;;;;9.61;100.00;100001.16;1626122;87;21032;-66
2021/12/03 01:23:00;;;;;;;18.35;8.85;;;;;;;9.62;100.00;99998.99;1623645;86;21591;-66
2021/12/03 01:25:28;;;;;;;21.55;9.55;;;;;;;9.62;100.00;99996.42;1628705;87;21032;-65
2021/12/03 01:27:58;;;;;;;20.35;9.40;;;;;;;9.60;100.00;99997.77;1609168;88;21072;-65
2021/12/03 01:30:25;;;;;;;16.87;8.98;;;;;;;9.64;100.00;100006.17;1608485;88;21020;-66
2021/12/03 01:32:52;;;;;;;22.75;10.20;;;;;;;9.64;100.00;99998.47;1608823;89;21067;-65
2021/12/03 01:35:20;;;;;;;15.80;9.03;;;;;;;9.69;100.00;99998.23;1608271;89;21559;-66
2021/12/03 01:37:48;;;;;;;25.23;9.25;;;;;;;9.72;100.00;100003.23;1608048;89;21123;-66
2021/12/03 01:40:20;;;;;;;20.80;10.15;;;;;;;9.70;100.00;100008.45;1609123;89;21083;-66
2021/12/03 01:42:48;;;;;;;21.02;9.50;;;;;;;9.70;100.00;100003.30;1610364;88;21064;-65
2021/12/03 01:45:19;;;;;;;23.65;9.45;;;;;;;9.70;100.00;99998.63;1608724;87;21035;-65
2021/12/03 01:47:49;;;;;;;15.50;8.83;;;;;;;9.66;100.00;100003.53;1611280;88;21020;-66
2021/12/03 01:50:17;;;;;;;19.87;10.25;;;;;;;9.65;100.00;100011.70;1609612;89;21091;-66
2021/12/03 01:52:44;;;;;;;25.82;10.18;;;;;;;9.63;100.00;100013.52;1608615;87;21092;-66
2021/12/03 01:55:12;;;;;;;24.07;10.85;;;;;;;9.63;100.00;100014.80;1607819;88;21040;-66
2021/12/03 01:57:39;;;;;;;21.95;10.28;;;;;;;9.65;100.00;100014.28;1608567;89;21134;-66
2021/12/03 02:00:15;;;;;;;22.10;10.28;;;;;;;9.64;100.00;100017.73;1608817;88;21978;-65
2021/12/03 02:02:42;;;;;;;23.95;10.20;;;;;;;9.60;100.00;100019.61;1609291;89;21554;-66
2021/12/03 02:05:10;;;;;;;22.82;10.65;;;;;;;9.58;100.00;100016.28;1608530;88;21119;-65
2021/12/03 02:07:37;;;;;;;23.65;10.98;;;;;;;9.61;100.00;100013.59;1609589;89;21051;-65
2021/12/03 02:10:06;;;;;;;18.40;9.48;;;;;;;9.64;100.00;100021.59;1609201;89;21071;-65
2021/12/03 02:12:33;;;;;;;25.40;10.25;;;;;;;9.60;100.00;100023.93;1608381;89;21020;-66
2021/12/03 02:15:00;;;;;;;21.87;9.75;;;;;;;9.55;100.00;100029.72;1608509;87;21051;-65
2021/12/03 02:17:26;;;;;;;19.42;9.88;;;;;;;9.53;100.00;100022.11;1609126;88;21024;-66
2021/12/03 02:19:54;;;;;;;18.32;10.40;;;;;;;9.54;100.00;100021.19;1608270;89;21113;-66
2021/12/03 02:22:20;;;;;;;20.62;9.93;;;;;;;9.52;100.00;100025.57;1608425;88;21135;-66
2021/12/03 02:24:48;;;;;;;19.25;9.68;;;;;;;9.48;100.00;100021.95;1607552;89;21162;-66
2021/12/03 02:27:15;;;;;;;23.65;10.15;;;;;;;9.48;100.00;100021.48;1608962;88;21095;-66
2021/12/03 02:29:43;;;;;;;21.57;10.45;;;;;;;9.43;100.00;100017.86;1608912;88;21088;-66
2021/12/03 02:32:10;;;;;;;21.48;9.50;;;;;;;9.46;100.00;100023.30;1609834;88;21861;-66
2021/12/03 02:34:37;;;;;;;21.05;9.65;;;;;;;9.41;100.00;100019.66;1608868;88;21575;-65
2021/12/03 02:37:05;;;;;;;22.02;9.68;;;;;;;9.38;100.00;100017.23;1609604;89;21095;-65
2021/12/03 02:39:32;;;;;;;26.48;10.53;;;;;;;9.39;100.00;100024.05;1607727;89;21059;-65
2021/12/03 02:41:59;;;;;;;22.40;9.90;;;;;;;9.40;100.00;100013.31;1610111;89;21040;-65
2021/12/03 02:44:26;;;;;;;19.92;9.55;;;;;;;9.40;100.00;100016.70;1610820;88;21118;-66
2021/12/03 02:46:53;;;;;;;23.00;10.28;;;;;;;9.39;100.00;100021.48;1611090;87;21055;-65
2021/12/03 02:49:19;;;;;;;21.70;10.28;;;;;;;9.38;100.00;100022.36;1623197;87;21059;-66
2021/12/03 02:51:46;;;;;;;21.45;9.50;;;;;;;9.39;100.00;100020.19;1628956;86;21486;-66
2021/12/03 02:54:13;;;;;;;26.45;10.15;;;;;;;9.43;100.00;100018.32;1618533;87;21260;-66
2021/12/03 02:56:40;;;;;;;23.42;10.20;;;;;;;9.45;100.00;100019.08;1620484;87;21539;-66
2021/12/03 02:59:06;;;;;;;24.18;10.08;;;;;;;9.46;100.00;100025.04;1631180;86;21111;-65
2021/12/03 03:01:33;;;;;;;21.17;10.05;;;;;;;9.48;100.00;100026.63;1629815;87;21110;-65
2021/12/03 03:04:00;;;;;;;21.73;9.78;;;;;;;9.44;100.00;100023.82;1624100;87;21070;-65
2021/12/03 03:06:27;;;;;;;25.70;10.68;;;;;;;9.46;100.00;100019.91;1611100;88;21091;-65
2021/12/03 03:08:54;;;;;;;24.72;10.65;;;;;;;9.48;100.00;100026.63;1622597;87;21067;-66
2021/12/03 03:11:22;;;;;;;23.67;9.98;;;;;;;9.53;100.00;100022.55;1625457;87;21552;-66
2021/12/03 03:13:50;;;;;;;29.90;10.95;;;;;;;9.52;100.00;100025.57;1608515;88;21158;-66
2021/12/03 03:16:19;;;;;;;27.07;10.55;;;;;;;9.51;100.00;100024.36;1611422;87;21128;-65
2021/12/03 03:18:46;;;;;;;22.70;10.10;;;;;;;9.54;100.00;100031.93;1608384;88;21141;-66
2021/12/03 03:21:13;;;;;;;24.27;10.30;;;;;;;9.53;100.00;100032.82;1609483;89;21056;-66
2021/12/03 03:23:41;;;;;;;25.17;9.13;;;;;;;9.48;100.00;100031.77;1607695;88;21165;-65
2021/12/03 03:26:08;;;;;;;28.50;10.53;;;;;;;9.48;100.00;100037.36;1608232;89;21104;-66
2021/12/03 03:28:37;;;;;;;19.65;9.85;;;;;;;9.46;100.00;100038.71;1610417;87;21555;-65
2021/12/03 03:31:05;;;;;;;22.60;9.45;;;;;;;9.47;100.00;100038.25;1609396;88;21075;-66
2021/12/03 03:33:33;;;;;;;30.65;9.75;;;;;;;9.45;100.00;100040.06;1608353;88;21098;-65
2021/12/03 03:36:00;;;;;;;26.52;9.55;;;;;;;9.40;100.00;100042.85;1608447;88;21059;-65
2021/12/03 03:38:27;;;;;;;21.07;9.43;;;;;;;9.45;100.00;100046.48;1610563;87;21576;-65
2021/12/03 03:40:54;;;;;;;23.05;9.53;;;;;;;9.44;100.00;100045.66;1607980;88;21075;-66
2021/12/03 03:43:22;;;;;;;26.40;9.60;;;;;;;9.46;100.00;100045.13;1608665;89;21043;-66
2021/12/03 03:45:49;;;;;;;21.05;9.45;;;;;;;9.46;100.00;100046.42;1612908;89;21039;-66
2021/12/03 03:48:16;;;;;;;26.97;10.03;;;;;;;9.43;100.00;100048.69;1607556;89;21024;-66
2021/12/03 03:50:43;;;;;;;20.25;9.23;;;;;;;9.50;100.00;100057.39;1588236;88;21083;-66
2021/12/03 03:53:10;;;;;;;18.90;9.08;;;;;;;9.50;100.00;100058.67;1639110;87;21099;-66
2021/12/03 03:55:39;;;;;;;20.25;9.60;;;;;;;9.52;100.00;100053.02;1616913;87;21749;-66
2021/12/03 03:58:05;;;;;;;25.02;9.43;;;;;;;9.50;100.00;100063.81;1630572;87;21027;-65
2021/12/03 04:00:37;;;;;;;21.85;8.93;;;;;;;9.50;100.00;100066.38;1615059;87;21592;-65
2021/12/03 04:03:06;;;;;;;19.92;9.15;;;;;;;9.46;100.00;100060.55;1619571;87;21067;-65
2021/12/03 04:05:33;;;;;;;26.97;9.83;;;;;;;9.51;100.00;100062.89;1626812;87;21055;-65
2021/12/03 04:08:00;;;;;;;23.50;9.48;;;;;;;9.54;100.00;100065.34;1608549;89;21071;-66
2021/12/03 04:10:27;;;;;;;26.48;9.83;;;;;;;9.56;100.00;100062.24;1609500;89;21587;-66
2021/12/03 04:12:54;;;;;;;28.57;9.68;;;;;;;9.57;100.00;100062.61;1608006;88;21146;-66
2021/12/03 04:15:24;;;;;;;21.12;10.18;;;;;;;9.57;100.00;100066.03;1609973;87;21087;-66
2021/12/03 04:17:51;;;;;;;22.75;9.65;;;;;;;9.59;100.00;100066.79;1608046;88;21091;-65
2021/12/03 04:20:19;;;;;;;24.63;9.35;;;;;;;9.60;100.00;100072.75;1608588;89;21087;-65
2021/12/03 04:22:48;;;;;;;24.60;10.10;;;;;;;9.58;100.00;100072.81;1608905;87;21103;-65
2021/12/03 04:25:19;;;;;;;23.07;9.48;;;;;;;9.61;100.00;100069.27;1608359;89;21107;-65
2021/12/03 04:27:47;;;;;;;23.55;9.15;;;;;;;9.60;100.00;100071.47;1623540;86;21035;-65
2021/12/03 04:30:19;;;;;;;20.55;9.25;;;;;;;9.61;100.00;100071.83;1622478;87;21134;-65
2021/12/03 04:32:46;;;;;;;18.55;9.28;;;;;;;9.61;100.00;100066.69;1620312;88;21564;-65
2021/12/03 04:35:13;;;;;;;21.55;9.65;;;;;;;9.60;100.00;100074.04;1633124;87;21562;-66
2021/12/03 04:37:40;;;;;;;21.15;9.38;;;;;;;9.59;100.00;100070.64;1631649;87;21094;-66
2021/12/03 04:40:12;;;;;;;21.60;9.25;;;;;;;9.58;100.00;100073.28;1629684;87;21626;-66
2021/12/03 04:42:40;;;;;;;20.05;9.18;;;;;;;9.61;100.00;100073.97;1631030;87;21039;-66
2021/12/03 04:45:09;;;;;;;23.32;11.08;;;;;;;9.59;100.00;100080.92;1621691;87;21068;-66
2021/12/03 04:47:37;;;;;;;22.50;9.90;;;;;;;9.62;100.00;100085.91;1625453;87;21039;-66
2021/12/03 04:50:07;;;;;;;22.30;9.08;;;;;;;9.62;100.00;100088.47;1616930;87;21028;-66
2021/12/03 04:52:34;;;;;;;22.32;9.10;;;;;;;9.60;100.00;100088.17;1618801;87;21064;-66
2021/12/03 04:55:01;;;;;;;22.40;8.78;;;;;;;9.58;100.00;100088.23;1608604;89;21103;-66
2021/12/03 04:57:28;;;;;;;21.80;8.53;;;;;;;9.51;100.00;100092.02;1607975;88;21082;-65
2021/12/03 04:59:55;;;;;;;20.00;8.38;;;;;;;9.50;100.00;100090.33;1608158;88;21047;-65
2021/12/03 05:02:23;;;;;;;21.05;9.63;;;;;;;9.48;100.00;100084.89;1632096;87;21047;-65
2021/12/03 05:04:52;;;;;;;22.82;9.98;;;;;;;9.48;100.00;100089.56;1627300;87;21169;-66
2021/12/03 05:07:52;;;;;;;23.30;9.38;;;;;;;9.41;100.00;100085.17;1619680;87;21091;-66
2021/12/03 05:10:00;;;;;;;18.40;8.70;;;;;;;9.44;100.00;100079.05;1622507;87;21515;-66
2021/12/03 05:12:26;;;;;;;19.07;8.10;;;;;;;9.48;100.00;100075.44;1629152;87;21048;-66
2021/12/03 05:14:53;;;;;;;22.93;7.85;;;;;;;9.41;100.00;100078.75;1623355;87;21075;-66
2021/12/03 05:17:21;;;;;;;20.37;7.78;;;;;;;9.45;100.00;100076.03;1618031;87;21059;-66
2021/12/03 05:19:49;;;;;;;26.95;8.03;;;;;;;9.47;100.00;100075.50;1622625;87;21134;-66
2021/12/03 05:22:16;;;;;;;19.52;7.97;;;;;;;9.50;100.00;100084.37;1621019;87;21190;-66
2021/12/03 05:24:46;;;;;;;18.25;6.80;;;;;;;9.54;100.00;100082.04;1616172;87;21114;-66
2021/12/03 05:27:17;;;;;;;19.67;8.15;;;;;;;9.48;100.00;100085.72;1620436;87;21075;-65
2021/12/03 05:29:47;;;;;;;26.75;10.30;;;;;;;9.50;100.00;100074.91;1616141;87;21063;-65
2021/12/03 05:32:15;;;;;;;15.75;7.40;;;;;;;9.52;100.00;100071.00;1612762;87;21094;-66
2021/12/03 05:34:42;;;;;;;15.08;6.42;;;;;;;9.54;100.00;100081.58;1628463;87;21063;-66
2021/12/03 05:37:10;;;;;;;15.68;5.97;;;;;;;9.51;100.00;100077.87;1626087;87;21080;-66
2021/12/03 05:39:38;;;;;;;16.25;5.85;;;;;;;9.49;100.00;100081.41;1621733;87;21511;-66
2021/12/03 05:42:06;;;;;;;12.45;5.05;;;;;;;9.50;100.00;100084.37;1628518;87;21064;-66
2021/12/03 05:44:33;;;;;;;14.53;5.60;;;;;;;9.47;100.00;100090.92;1625496;87;21595;-66
2021/12/03 05:47:00;;;;;;;15.60;5.78;;;;;;;9.46;100.00;100094.41;1614512;87;21177;-66
2021/12/03 05:49:29;;;;;;;12.90;5.03;;;;;;;9.48;100.00;100093.42;1610828;88;21667;-66
2021/12/03 05:51:56;;;;;;;13.68;5.03;;;;;;;9.49;100.00;100104.09;1620185;87;21719;-66
2021/12/03 05:54:23;;;;;;;15.55;5.22;;;;;;;9.56;100.00;100104.18;1628086;87;21063;-66
2021/12/03 05:56:50;;;;;;;10.00;4.87;;;;;;;9.56;100.00;100100.33;1614877;87;21535;-65
2021/12/03 05:59:17;;;;;;;11.53;4.80;;;;;;;9.58;100.00;100106.69;1615867;87;21119;-66
2021/12/03 06:01:44;;;;;;;12.45;4.83;;;;;;;9.62;100.00;100112.89;1625147;87;21562;-66
2021/12/03 06:04:11;;;;;;;10.30;4.28;;;;;;;9.63;100.00;100112.00;1616041;87;21043;-65
2021/12/03 06:06:39;;;;;;;11.30;4.47;;;;;;;9.66;100.00;100111.02;1629743;87;21559;-66
2021/12/03 06:09:07;;;;;;;12.65;4.35;;;;;;;9.73;100.00;100114.13;1610446;87;21058;-66
2021/12/03 06:11:34;;;;;;;11.33;4.55;;;;;;;9.72;100.00;100115.87;1642179;86;21500;-66
2021/12/03 06:14:01;;;;;;;9.88;4.25;;;;;;;9.74;100.00;100117.09;1644969;86;21062;-66
2021/12/03 06:16:27;;;;;;;9.03;4.08;;;;;;;9.65;100.00;100111.94;1659731;86;21060;-66
2021/12/03 06:18:54;;;;;;;10.45;4.47;;;;;;;9.71;100.00;100107.79;1662850;85;21102;-66
2021/12/03 06:21:21;;;;;;;12.05;4.55;;;;;;;9.76;100.00;100108.39;1667092;86;21035;-66
2021/12/03 06:23:48;;;;;;;12.53;4.40;;;;;;;9.80;100.00;100109.09;1665976;84;21070;-66
2021/12/03 06:26:14;;;;;;;16.45;5.40;;;;;;;9.84;100.00;100106.75;1671217;85;21043;-66
2021/12/03 06:28:43;;;;;;;12.20;4.75;;;;;;;9.96;100.00;100113.88;1667855;85;21065;-66
2021/12/03 06:31:12;;;;;;;10.98;5.55;;;;;;;10.06;100.00;100110.84;1665323;85;21055;-66
2021/12/03 06:33:40;;;;;;;11.83;4.78;;;;;;;10.17;100.00;100112.46;1662831;85;21512;-66
2021/12/03 06:36:06;;;;;;;11.12;5.08;;;;;;;10.24;100.00;100107.41;1662661;85;21039;-66
2021/12/03 06:38:33;;;;;;;10.43;5.10;;;;;;;10.28;100.00;100116.64;1662724;85;21047;-66
2021/12/03 06:41:01;;;;;;;12.07;4.83;;;;;;;10.44;100.00;100115.43;1665839;85;21067;-66
2021/12/03 06:43:28;;;;;;;12.73;4.70;;;;;;;10.41;100.00;100119.46;1665208;86;21524;-65
2021/12/03 06:45:55;;;;;;;12.85;4.85;;;;;;;10.38;100.00;100110.16;1664006;85;21107;-66
2021/12/03 06:48:22;;;;;;;8.68;4.37;;;;;;;10.42;100.00;100119.39;1663163;85;21079;-65
2021/12/03 06:50:50;;;;;;;11.57;4.33;;;;;;;10.51;100.00;100112.95;1662343;85;21017;-66
2021/12/03 06:53:20;;;;;;;9.68;4.70;;;;;;;10.51;100.00;100116.80;1658638;85;21054;-66
2021/12/03 06:55:48;;;;;;;11.22;4.53;;;;;;;10.48;100.00;100110.97;1653146;86;22165;-66
2021/12/03 06:58:18;;;;;;;8.98;3.72;;;;;;;10.43;100.00;100114.61;1661379;85;21507;-66
2021/12/03 07:00:48;;;;;;;12.50;4.08;;;;;;;10.39;100.00;100115.67;1654577;86;21020;-66
2021/12/03 07:03:15;;;;;;;8.88;4.55;;;;;;;10.41;100.00;100117.71;1660223;86;21528;-66
2021/12/03 07:05:43;;;;;;;12.18;4.70;;;;;;;10.57;100.00;100117.78;1663718;84;21074;-66
2021/12/03 07:08:10;;;;;;;10.48;4.00;;;;;;;10.66;100.00;100122.91;1661266;85;21118;-65
2021/12/03 07:10:37;;;;;;;9.68;4.05;;;;;;;10.72;100.00;100129.50;1656188;85;21072;-66
2021/12/03 07:13:05;;;;;;;11.85;6.05;;;;;;;10.76;100.00;100131.01;1648406;86;21542;-66
2021/12/03 07:15:32;;;;;;;10.80;4.28;;;;;;;10.71;100.00;100131.25;1645746;85;21552;-66
2021/12/03 07:17:59;;;;;;;7.83;4.33;;;;;;;10.70;100.00;100133.43;1649756;86;21036;-66
2021/12/03 07:20:28;;;;;;;10.95;4.37;;;;;;;10.71;100.00;100145.87;1654216;85;21092;-65
2021/12/03 07:22:55;;;;;;;10.93;4.30;;;;;;;10.79;100.00;100143.73;1652600;85;21779;-66
2021/12/03 07:25:23;;;;;;;10.05;4.03;;;;;;;10.88;100.00;100144.55;1652905;85;21622;-66
2021/12/03 07:27:50;;;;;;;11.95;4.47;;;;;;;10.90;100.00;100138.03;1654141;86;21595;-66
2021/12/03 07:30:19;;;;;;;9.15;3.67;;;;;;;11.03;100.00;100136.50;1654783;84;21081;-66
2021/12/03 07:32:48;;;;;;;9.73;3.90;;;;;;;11.01;100.00;100140.44;1653721;86;21053;-66
2021/12/03 07:35:15;;;;;;;10.28;4.30;;;;;;;11.06;100.00;100140.66;1654704;85;21003;-66
2021/12/03 07:37:43;;;;;;;11.50;4.10;;;;;;;11.06;100.00;100139.37;1662553;86;21009;-65
2021/12/03 07:40:14;;;;;;;8.60;3.40;;;;;;;11.14;100.00;100146.23;1635587;85;21054;-66
2021/12/03 07:42:42;;;;;;;11.50;3.92;;;;;;;11.19;100.00;100152.82;1653463;85;21067;-66
2021/12/03 07:45:12;;;;;;;9.95;4.08;;;;;;;11.28;100.00;100145.05;1653061;86;21070;-66
2021/12/03 07:47:39;;;;;;;10.18;4.20;;;;;;;11.37;100.00;100140.69;1660792;86;21025;-65
2021/12/03 07:50:09;;;;;;;8.60;3.70;;;;;;;11.31;100.00;100147.92;1656983;85;21575;-66
2021/12/03 07:52:36;;;;;;;7.53;4.17;;;;;;;11.18;100.00;100158.05;1665815;85;21052;-66
2021/12/03 07:55:05;;;;;;;7.28;3.98;;;;;;;11.13;100.00;100152.28;1655322;86;21094;-66
2021/12/03 07:57:33;;;;;;;13.13;4.10;;;;;;;11.05;100.00;100159.58;1654489;86;21033;-68
2021/12/03 08:00:00;;;;;;;11.88;4.00;;;;;;;11.05;100.00;100153.14;1650788;86;21082;-66
2021/12/03 08:02:27;;;;;;;9.70;4.00;;;;;;;11.11;100.00;100147.67;1646002;86;21131;-65
2021/12/03 08:04:54;;;;;;;7.78;4.10;;;;;;;11.12;100.00;100149.35;1643875;86;21025;-66
2021/12/03 08:07:22;;;;;;;8.78;3.95;;;;;;;11.06;100.00;100149.20;1645899;86;21073;-65
2021/12/03 08:09:50;;;;;;;13.45;4.35;;;;;;;11.09;100.00;100141.33;1648662;86;21089;-66
2021/12/03 08:12:16;;;;;;;10.60;4.40;;;;;;;11.18;100.00;100131.00;1644103;86;21073;-66
2021/12/03 08:14:45;;;;;;;10.72;3.67;;;;;;;11.26;100.00;100134.00;1634387;86;21054;-66
2021/12/03 08:17:12;;;;;;;8.58;4.10;;;;;;;11.26;100.00;100130.13;1644730;86;21037;-66
2021/12/03 08:19:38;;;;;;;8.45;4.37;;;;;;;11.36;100.00;100135.64;1640261;86;21558;-66
2021/12/03 08:22:06;;;;;;;12.58;4.70;;;;;;;11.43;100.00;100139.10;1654446;85;21081;-66
2021/12/03 08:24:32;;;;;;;11.20;4.40;;;;;;;11.45;100.00;100134.30;1664368;86;21072;-66
2021/12/03 08:27:00;;;;;;;12.78;4.83;;;;;;;11.43;100.00;100127.50;1647760;86;21589;-66
2021/12/03 08:29:27;;;;;;;9.30;4.20;;;;;;;11.42;100.00;100127.11;1647586;86;21087;-66
2021/12/03 08:31:54;;;;;;;9.83;4.53;;;;;;;11.35;100.00;100130.91;1652576;86;21041;-66
2021/12/03 08:34:21;;;;;;;9.95;3.90;;;;;;;11.33;100.00;100126.30;1643178;86;21077;-67
2021/12/03 08:36:48;;;;;;;8.80;4.15;;;;;;;11.28;100.00;100120.58;1643147;86;21549;-66
2021/12/03 08:39:14;;;;;;;11.68;4.28;;;;;;;11.27;100.00;100118.90;1647736;86;21062;-66
2021/12/03 08:41:41;;;;;;;10.05;5.15;;;;;;;11.26;100.00;100111.27;1651756;85;21020;-66
2021/12/03 08:44:07;;;;;;;10.80;4.47;;;;;;;11.30;100.00;100108.91;1652908;86;21011;-66
2021/12/03 08:46:37;;;;;;;10.43;4.45;;;;;;;11.26;100.00;100113.85;1660488;86;21124;-65
2021/12/03 08:56:57;;;;;;;12.90;5.30;;;;;;;11.45;100.00;100095.17;1663473;85;21472;-67
2021/12/03 08:59:24;;;;;;;8.88;4.72;;;;;;;11.62;100.00;100088.66;1671047;85;21058;-67
2021/12/03 09:01:51;;;;;;;10.08;4.92;;;;;;;11.83;100.00;100088.37;1669903;84;21086;-67
2021/12/03 09:04:17;;;;;;;11.88;5.05;;;;;;;12.00;100.00;100085.72;1660958;84;21106;-66
2021/12/03 09:06:44;;;;;;;10.58;4.75;;;;;;;12.10;100.00;100082.13;1659822;85;21511;-68
2021/12/03 09:09:11;;;;;;;11.75;4.83;;;;;;;12.03;100.00;100093.27;1668663;85;21070;-67
2021/12/03 09:11:38;;;;;;;8.33;4.40;;;;;;;12.28;100.00;100080.72;1666355;85;21086;-67
2021/12/03 09:14:15;;;;;;;9.10;3.92;;;;;;;12.35;100.00;100077.69;1664852;86;21098;-67
2021/12/03 09:16:35;;;;;;;9.48;4.17;;;;;;;12.55;100.00;100077.81;1661217;84;21071;-67
2021/12/03 09:19:05;;;;;;;8.13;3.90;;;;;;;12.62;100.00;100063.61;1655465;86;21048;-67
2021/12/03 09:21:33;;;;;;;6.47;3.90;;;;;;;12.73;100.00;100073.75;1666436;85;21173;-67
2021/12/03 09:26:27;;;;;;;7.90;3.72;;;;;;;12.80;100.00;100075.06;1659621;85;21112;-67
2021/12/03 09:29:04;;;;;;;10.48;4.03;;;;;;;12.78;100.00;100076.91;1668826;85;21434;-67
2021/12/03 09:31:29;;;;;;;13.93;4.12;;;;;;;12.72;100.00;100065.65;1664811;85;21040;-67
2021/12/03 09:33:57;;;;;;;9.90;4.50;;;;;;;12.51;100.00;100068.59;1664352;85;21047;-67
2021/12/03 09:36:24;;;;;;;9.38;3.98;;;;;;;12.31;100.00;100065.06;1659451;86;21633;-67
2021/12/03 09:38:51;;;;;;;10.65;4.45;;;;;;;12.22;100.00;100062.07;1662921;86;21071;-67
2021/12/03 09:41:20;;;;;;;8.10;4.50;;;;;;;12.15;100.00;100053.51;1655678;86;21504;-67
2021/12/03 09:43:51;;;;;;;13.15;4.28;;;;;;;12.17;100.00;100052.95;1666219;84;21079;-67
2021/12/03 09:46:23;;;;;;;7.97;4.08;;;;;;;12.28;100.00;100049.75;1668303;86;21099;-67
2021/12/03 09:51:42;;;;;;;9.50;4.53;;;;;;;12.40;100.00;100043.86;1664163;85;21099;-68
2021/12/03 09:54:50;;;;;;;7.53;4.00;;;;;;;12.56;100.00;100048.48;1646675;86;21070;-67
2021/12/03 09:56:39;;;;;;;9.90;4.42;;;;;;;12.58;100.00;100035.48;1657912;85;21078;-67
2021/12/03 09:59:40;;;;;;;8.28;4.10;;;;;;;12.65;100.00;100034.18;1667489;84;21073;-67
2021/12/03 10:12:43;;;;;;;6.40;3.77;;;;;;;12.92;100.00;100018.77;1604864;86;21091;-67
2021/12/03 10:15:26;;;;;;;11.38;4.80;;;;;;;12.89;100.00;100006.03;1667656;85;21599;-67
2021/12/03 10:23:50;;;;;;;9.15;4.62;;;;;;;12.71;100.00;100004.14;1669182;84;21085;-67
2021/12/03 10:52:12;;;;;;;14.20;4.75;;;;;;;12.98;100.00;99969.30;1672664;85;21036;-67
2021/12/03 10:54:56;;;;;;;7.70;4.75;;;;;;;13.01;100.00;99956.17;1689966;84;21066;-67
2021/12/03 11:00:49;;;;;;;8.88;4.85;;;;;;;13.13;100.00;99946.00;1692064;83;21538;-67
2021/12/03 11:08:37;;;;;;;12.40;5.05;;;;;;;13.31;100.00;99943.56;1692385;84;21012;-67
2021/12/03 11:11:28;;;;;;;11.68;5.05;;;;;;;13.30;100.00;99946.23;1686803;83;21083;-67
2021/12/03 12:04:05;;;;;;;12.50;5.70;;;;;;;13.53;100.00;99921.02;1659889;85;21522;-67
2021/12/03 12:47:52;;;;;;;13.43;5.87;;;;;;;12.91;100.00;99920.22;1662074;86;21122;-68
2021/12/03 13:19:16;;;;;;;14.73;7.78;;;;;;;12.54;100.00;99912.67;1663587;85;21575;-67
2021/12/03 14:43:24;;;;;;;15.32;7.33;;;;;;;10.98;100.00;99865.02;1661384;85;21632;-68
2021/12/03 14:48:40;;;;;;;10.90;6.97;;;;;;;10.95;100.00;99868.24;1664510;85;21083;-67
2021/12/03 14:56:11;;;;;;;15.20;8.18;;;;;;;10.96;100.00;99865.56;1662866;86;21067;-67
2021/12/03 15:01:17;;;;;;;18.55;7.95;;;;;;;10.94;100.00;99857.55;1662109;86;21512;-67
2021/12/03 15:06:33;;;;;;;20.68;9.78;;;;;;;10.86;100.00;99859.27;1663593;84;21039;-68
2021/12/03 15:09:20;;;;;;;18.90;8.88;;;;;;;10.87;100.00;99859.66;1658510;85;21055;-68
2021/12/03 15:20:18;;;;;;;20.82;9.13;;;;;;;10.89;100.00;99862.12;1662105;85;21055;-67
2021/12/03 15:25:16;;;;;;;16.60;7.97;;;;;;;10.83;100.00;99863.31;1664388;85;21052;-67
2021/12/03 15:35:54;;;;;;;19.98;8.68;;;;;;;10.72;100.00;99865.17;1657307;85;20999;-68
2021/12/03 16:10:29;;;;;;;24.57;10.20;;;;;;;10.70;100.00;99841.72;1678842;84;21625;-67
2021/12/03 16:15:35;;;;;;;24.92;11.83;;;;;;;10.55;100.00;99835.22;1675466;84;21007;-67
2021/12/03 16:26:04;;;;;;;19.32;9.30;;;;;;;10.35;100.00;99825.19;1673483;84;21089;-68
2021/12/03 16:44:54;;;;;;;27.85;13.05;;;;;;;10.16;100.00;99826.14;1684669;83;21023;-68
2021/12/03 16:52:01;;;;;;;23.42;11.78;;;;;;;10.12;100.00;99820.79;1687350;83;21106;-68
2021/12/03 16:54:41;;;;;;;22.93;11.70;;;;;;;10.11;100.00;99819.12;1682986;83;21079;-68
2021/12/03 16:57:00;;;;;;;24.57;11.05;;;;;;;10.10;100.00;99825.19;1673573;84;21114;-68
2021/12/03 16:59:27;;;;;;;23.55;12.10;;;;;;;10.15;100.00;99826.22;1669392;84;21095;-68
2021/12/03 17:20:49;;;;;;;18.90;9.25;;;;;;;10.11;100.00;99837.58;1634984;86;21111;-68
2021/12/03 17:49:38;;;;;;;26.15;11.12;;;;;;;10.43;100.00;99832.85;1634535;86;20972;-68
2021/12/03 17:58:02;;;;;;;18.45;8.68;;;;;;;10.50;100.00;99850.09;1632934;86;21024;-68
2021/12/03 17:59:46;;;;;;;22.15;9.38;;;;;;;10.55;100.00;99858.38;1628390;86;21050;-68
2021/12/03 18:05:23;;;;;;;20.80;9.38;;;;;;;10.61;100.00;99864.48;1636076;87;21028;-68
2021/12/03 18:55:59;;;;;;;30.50;10.65;;;;;;;11.13;100.00;99886.95;1681280;84;21530;-67
2021/12/03 18:58:34;;;;;;;22.32;10.03;;;;;;;11.18;100.00;99882.39;1674704;84;21026;-68
2021/12/03 19:01:02;;;;;;;29.65;10.68;;;;;;;11.18;100.00;99887.55;1674453;85;21593;-68
2021/12/03 19:04:00;;;;;;;26.35;11.12;;;;;;;11.23;100.00;99884.23;1673824;85;21046;-68